sensor_id;sensor_type;location;lat;lon;timestamp;P1;durP1;ratioP1;P2;durP2;ratioP2
25137;SDS011;13112;50.986;4.354;2022-07-29T00:00:38;14.00;;;12.98;;
25137;SDS011;13112;50.986;4.354;2022-07-29T00:03:03;13.05;;;12.20;;
25137;SDS011;13112;50.986;4.354;2022-07-29T00:05:29;13.25;;;12.20;;
25137;SDS011;13112;50.986;4.354;2022-07-29T00:07:55;13.45;;;12.65;;
25137;SDS011;13112;50.986;4.354;2022-07-29T00:10:21;13.23;;;12.43;;
25137;SDS011;13112;50.986;4.354;2022-07-29T00:12:46;13.77;;;12.70;;
25137;SDS011;13112;50.986;4.354;2022-07-29T00:15:12;13.35;;;12.20;;
25137;SDS011;13112;50.986;4.354;2022-07-29T00:17:38;13.27;;;12.35;;
25137;SDS011;13112;50.986;4.354;2022-07-29T00:20:04;13.10;;;12.15;;
25137;SDS011;13112;50.986;4.354;2022-07-29T00:22:30;13.20;;;12.30;;
25137;SDS011;13112;50.986;4.354;2022-07-29T00:24:56;13.07;;;12.27;;
25137;SDS011;13112;50.986;4.354;2022-07-29T00:27:21;13.18;;;12.27;;
25137;SDS011;13112;50.986;4.354;2022-07-29T00:29:47;13.50;;;12.50;;
25137;SDS011;13112;50.986;4.354;2022-07-29T00:32:13;13.88;;;12.88;;
25137;SDS011;13112;50.986;4.354;2022-07-29T00:34:39;13.75;;;12.60;;
25137;SDS011;13112;50.986;4.354;2022-07-29T00:37:23;14.00;;;12.68;;
25137;SDS011;13112;50.986;4.354;2022-07-29T00:39:48;13.90;;;12.68;;
25137;SDS011;13112;50.986;4.354;2022-07-29T00:42:14;13.63;;;12.73;;
25137;SDS011;13112;50.986;4.354;2022-07-29T00:44:42;13.48;;;12.48;;
25137;SDS011;13112;50.986;4.354;2022-07-29T00:47:09;13.85;;;12.70;;
25137;SDS011;13112;50.986;4.354;2022-07-29T00:49:35;13.88;;;12.77;;
25137;SDS011;13112;50.986;4.354;2022-07-29T00:52:03;13.32;;;12.43;;
25137;SDS011;13112;50.986;4.354;2022-07-29T00:54:30;13.43;;;12.38;;
25137;SDS011;13112;50.986;4.354;2022-07-29T00:56:57;14.23;;;13.20;;
25137;SDS011;13112;50.986;4.354;2022-07-29T00:59:24;13.88;;;12.98;;
25137;SDS011;13112;50.986;4.354;2022-07-29T01:01:53;12.95;;;12.15;;
25137;SDS011;13112;50.986;4.354;2022-07-29T01:04:20;13.60;;;12.70;;
25137;SDS011;13112;50.986;4.354;2022-07-29T01:06:47;13.65;;;12.57;;
25137;SDS011;13112;50.986;4.354;2022-07-29T01:09:14;13.77;;;12.82;;
25137;SDS011;13112;50.986;4.354;2022-07-29T01:11:41;14.10;;;12.93;;
25137;SDS011;13112;50.986;4.354;2022-07-29T01:14:08;13.20;;;12.30;;
25137;SDS011;13112;50.986;4.354;2022-07-29T01:30:42;13.80;;;13.00;;
25137;SDS011;13112;50.986;4.354;2022-07-29T01:33:12;14.05;;;13.07;;
25137;SDS011;13112;50.986;4.354;2022-07-29T01:36:06;14.02;;;12.90;;
25137;SDS011;13112;50.986;4.354;2022-07-29T01:38:37;14.20;;;13.20;;
25137;SDS011;13112;50.986;4.354;2022-07-29T01:41:07;14.10;;;12.90;;
25137;SDS011;13112;50.986;4.354;2022-07-29T01:43:44;14.18;;;13.00;;
25137;SDS011;13112;50.986;4.354;2022-07-29T01:46:17;13.75;;;12.82;;
25137;SDS011;13112;50.986;4.354;2022-07-29T01:48:53;14.52;;;13.50;;
25137;SDS011;13112;50.986;4.354;2022-07-29T01:51:41;14.63;;;13.60;;
25137;SDS011;13112;50.986;4.354;2022-07-29T01:57:09;14.85;;;13.73;;
25137;SDS011;13112;50.986;4.354;2022-07-29T01:59:38;14.48;;;13.55;;
25137;SDS011;13112;50.986;4.354;2022-07-29T02:02:06;14.70;;;13.60;;
25137;SDS011;13112;50.986;4.354;2022-07-29T02:04:33;15.38;;;14.38;;
25137;SDS011;13112;50.986;4.354;2022-07-29T02:07:02;14.55;;;13.35;;
25137;SDS011;13112;50.986;4.354;2022-07-29T02:09:31;14.15;;;13.30;;
25137;SDS011;13112;50.986;4.354;2022-07-29T02:11:59;14.43;;;13.52;;
25137;SDS011;13112;50.986;4.354;2022-07-29T02:14:28;15.25;;;14.15;;
25137;SDS011;13112;50.986;4.354;2022-07-29T02:16:59;15.00;;;13.90;;
25137;SDS011;13112;50.986;4.354;2022-07-29T02:19:26;15.35;;;13.95;;
25137;SDS011;13112;50.986;4.354;2022-07-29T02:21:54;15.05;;;13.88;;
25137;SDS011;13112;50.986;4.354;2022-07-29T02:24:27;15.10;;;14.00;;
25137;SDS011;13112;50.986;4.354;2022-07-29T02:26:55;14.82;;;13.82;;
25137;SDS011;13112;50.986;4.354;2022-07-29T02:29:23;15.30;;;14.20;;
25137;SDS011;13112;50.986;4.354;2022-07-29T02:31:51;15.07;;;13.88;;
25137;SDS011;13112;50.986;4.354;2022-07-29T02:34:19;14.82;;;13.93;;
25137;SDS011;13112;50.986;4.354;2022-07-29T02:36:46;16.05;;;14.57;;
25137;SDS011;13112;50.986;4.354;2022-07-29T02:39:12;15.25;;;14.15;;
25137;SDS011;13112;50.986;4.354;2022-07-29T02:41:47;15.57;;;14.50;;
25137;SDS011;13112;50.986;4.354;2022-07-29T02:44:18;15.63;;;14.52;;
25137;SDS011;13112;50.986;4.354;2022-07-29T02:52:04;15.52;;;14.20;;
25137;SDS011;13112;50.986;4.354;2022-07-29T02:55:01;15.70;;;14.50;;
25137;SDS011;13112;50.986;4.354;2022-07-29T02:57:33;15.57;;;14.48;;
25137;SDS011;13112;50.986;4.354;2022-07-29T03:00:04;15.43;;;14.30;;
25137;SDS011;13112;50.986;4.354;2022-07-29T03:02:33;15.50;;;14.30;;
25137;SDS011;13112;50.986;4.354;2022-07-29T03:05:02;16.15;;;14.95;;
25137;SDS011;13112;50.986;4.354;2022-07-29T03:07:28;15.93;;;14.73;;
25137;SDS011;13112;50.986;4.354;2022-07-29T03:09:55;15.35;;;14.00;;
25137;SDS011;13112;50.986;4.354;2022-07-29T03:12:22;15.85;;;14.73;;
25137;SDS011;13112;50.986;4.354;2022-07-29T03:14:48;16.17;;;14.68;;
25137;SDS011;13112;50.986;4.354;2022-07-29T03:17:14;16.15;;;14.95;;
25137;SDS011;13112;50.986;4.354;2022-07-29T03:19:41;16.48;;;14.88;;
25137;SDS011;13112;50.986;4.354;2022-07-29T03:22:07;15.52;;;14.57;;
25137;SDS011;13112;50.986;4.354;2022-07-29T03:24:35;15.85;;;14.75;;
25137;SDS011;13112;50.986;4.354;2022-07-29T03:27:02;16.65;;;15.30;;
25137;SDS011;13112;50.986;4.354;2022-07-29T03:29:29;16.05;;;14.77;;
25137;SDS011;13112;50.986;4.354;2022-07-29T03:31:54;16.10;;;15.10;;
25137;SDS011;13112;50.986;4.354;2022-07-29T03:34:21;15.90;;;14.77;;
25137;SDS011;13112;50.986;4.354;2022-07-29T03:36:47;16.10;;;14.80;;
25137;SDS011;13112;50.986;4.354;2022-07-29T03:39:14;15.95;;;14.63;;
25137;SDS011;13112;50.986;4.354;2022-07-29T03:41:43;16.10;;;15.00;;
25137;SDS011;13112;50.986;4.354;2022-07-29T03:44:10;15.75;;;14.75;;
25137;SDS011;13112;50.986;4.354;2022-07-29T03:46:37;15.80;;;14.80;;
25137;SDS011;13112;50.986;4.354;2022-07-29T03:49:04;16.55;;;15.30;;
25137;SDS011;13112;50.986;4.354;2022-07-29T03:51:33;16.80;;;15.30;;
25137;SDS011;13112;50.986;4.354;2022-07-29T03:54:00;16.25;;;14.93;;
25137;SDS011;13112;50.986;4.354;2022-07-29T03:56:28;16.27;;;15.05;;
25137;SDS011;13112;50.986;4.354;2022-07-29T03:58:54;16.77;;;15.20;;
25137;SDS011;13112;50.986;4.354;2022-07-29T04:01:21;16.73;;;15.20;;
25137;SDS011;13112;50.986;4.354;2022-07-29T04:03:48;17.60;;;15.82;;
25137;SDS011;13112;50.986;4.354;2022-07-29T04:06:14;17.35;;;15.70;;
25137;SDS011;13112;50.986;4.354;2022-07-29T04:08:40;17.88;;;16.30;;
25137;SDS011;13112;50.986;4.354;2022-07-29T04:11:05;17.65;;;16.05;;
25137;SDS011;13112;50.986;4.354;2022-07-29T04:13:32;18.08;;;16.27;;
25137;SDS011;13112;50.986;4.354;2022-07-29T04:15:58;17.63;;;16.13;;
25137;SDS011;13112;50.986;4.354;2022-07-29T04:18:24;17.65;;;15.93;;
25137;SDS011;13112;50.986;4.354;2022-07-29T04:20:50;17.42;;;15.80;;
25137;SDS011;13112;50.986;4.354;2022-07-29T04:23:16;17.30;;;15.82;;
25137;SDS011;13112;50.986;4.354;2022-07-29T04:25:41;16.65;;;15.20;;
25137;SDS011;13112;50.986;4.354;2022-07-29T04:28:07;16.83;;;15.40;;
25137;SDS011;13112;50.986;4.354;2022-07-29T04:30:34;16.75;;;15.07;;
25137;SDS011;13112;50.986;4.354;2022-07-29T04:33:01;15.95;;;14.32;;
25137;SDS011;13112;50.986;4.354;2022-07-29T04:35:29;14.95;;;13.85;;
25137;SDS011;13112;50.986;4.354;2022-07-29T04:37:55;15.23;;;14.20;;
25137;SDS011;13112;50.986;4.354;2022-07-29T04:40:20;15.73;;;14.32;;
25137;SDS011;13112;50.986;4.354;2022-07-29T04:42:46;14.98;;;13.93;;
25137;SDS011;13112;50.986;4.354;2022-07-29T04:45:12;18.67;;;14.43;;
25137;SDS011;13112;50.986;4.354;2022-07-29T04:47:38;16.05;;;14.70;;
25137;SDS011;13112;50.986;4.354;2022-07-29T04:50:04;15.25;;;14.18;;
25137;SDS011;13112;50.986;4.354;2022-07-29T04:52:32;15.30;;;14.20;;
25137;SDS011;13112;50.986;4.354;2022-07-29T04:54:57;15.93;;;14.60;;
25137;SDS011;13112;50.986;4.354;2022-07-29T04:57:23;15.68;;;14.35;;
25137;SDS011;13112;50.986;4.354;2022-07-29T04:59:49;16.67;;;14.70;;
25137;SDS011;13112;50.986;4.354;2022-07-29T05:02:14;14.82;;;13.77;;
25137;SDS011;13112;50.986;4.354;2022-07-29T05:04:40;15.05;;;13.90;;
25137;SDS011;13112;50.986;4.354;2022-07-29T05:07:06;14.82;;;13.80;;
25137;SDS011;13112;50.986;4.354;2022-07-29T05:09:31;15.43;;;14.32;;
25137;SDS011;13112;50.986;4.354;2022-07-29T05:11:57;15.20;;;13.98;;
25137;SDS011;13112;50.986;4.354;2022-07-29T05:14:23;15.85;;;14.30;;
25137;SDS011;13112;50.986;4.354;2022-07-29T05:16:49;15.63;;;14.48;;
25137;SDS011;13112;50.986;4.354;2022-07-29T05:19:16;15.88;;;14.50;;
25137;SDS011;13112;50.986;4.354;2022-07-29T05:21:42;14.45;;;13.52;;
25137;SDS011;13112;50.986;4.354;2022-07-29T05:24:09;15.10;;;13.63;;
25137;SDS011;13112;50.986;4.354;2022-07-29T05:26:35;15.63;;;14.50;;
25137;SDS011;13112;50.986;4.354;2022-07-29T05:29:00;14.75;;;13.63;;
25137;SDS011;13112;50.986;4.354;2022-07-29T05:31:26;15.40;;;13.98;;
25137;SDS011;13112;50.986;4.354;2022-07-29T05:33:52;15.05;;;13.90;;
25137;SDS011;13112;50.986;4.354;2022-07-29T05:36:18;22.88;;;14.10;;
25137;SDS011;13112;50.986;4.354;2022-07-29T05:38:44;15.02;;;13.75;;
25137;SDS011;13112;50.986;4.354;2022-07-29T05:41:09;15.13;;;13.95;;
25137;SDS011;13112;50.986;4.354;2022-07-29T05:43:35;14.98;;;13.88;;
25137;SDS011;13112;50.986;4.354;2022-07-29T05:46:01;16.27;;;14.80;;
25137;SDS011;13112;50.986;4.354;2022-07-29T05:48:26;16.58;;;15.25;;
25137;SDS011;13112;50.986;4.354;2022-07-29T05:50:52;20.90;;;14.75;;
25137;SDS011;13112;50.986;4.354;2022-07-29T05:53:18;15.27;;;13.88;;
25137;SDS011;13112;50.986;4.354;2022-07-29T05:55:43;15.10;;;13.68;;
25137;SDS011;13112;50.986;4.354;2022-07-29T05:58:09;16.20;;;14.52;;
25137;SDS011;13112;50.986;4.354;2022-07-29T06:00:35;14.98;;;13.75;;
25137;SDS011;13112;50.986;4.354;2022-07-29T06:03:01;15.70;;;14.50;;
25137;SDS011;13112;50.986;4.354;2022-07-29T06:05:32;14.43;;;13.52;;
25137;SDS011;13112;50.986;4.354;2022-07-29T06:07:57;14.98;;;13.77;;
25137;SDS011;13112;50.986;4.354;2022-07-29T06:10:23;14.25;;;13.35;;
25137;SDS011;13112;50.986;4.354;2022-07-29T06:12:49;16.42;;;14.93;;
25137;SDS011;13112;50.986;4.354;2022-07-29T06:15:15;15.23;;;14.20;;
25137;SDS011;13112;50.986;4.354;2022-07-29T06:17:40;15.27;;;14.00;;
25137;SDS011;13112;50.986;4.354;2022-07-29T06:20:06;15.80;;;14.60;;
25137;SDS011;13112;50.986;4.354;2022-07-29T06:22:32;14.65;;;13.65;;
25137;SDS011;13112;50.986;4.354;2022-07-29T06:24:58;15.02;;;13.60;;
25137;SDS011;13112;50.986;4.354;2022-07-29T06:27:23;14.88;;;13.77;;
25137;SDS011;13112;50.986;4.354;2022-07-29T06:29:49;15.32;;;13.98;;
25137;SDS011;13112;50.986;4.354;2022-07-29T06:32:15;15.27;;;14.18;;
25137;SDS011;13112;50.986;4.354;2022-07-29T06:34:40;14.90;;;13.80;;
25137;SDS011;13112;50.986;4.354;2022-07-29T06:37:09;15.15;;;13.82;;
25137;SDS011;13112;50.986;4.354;2022-07-29T06:39:38;15.23;;;14.05;;
25137;SDS011;13112;50.986;4.354;2022-07-29T06:42:04;15.55;;;14.25;;
25137;SDS011;13112;50.986;4.354;2022-07-29T06:44:30;14.30;;;13.13;;
25137;SDS011;13112;50.986;4.354;2022-07-29T06:46:56;14.70;;;13.60;;
25137;SDS011;13112;50.986;4.354;2022-07-29T06:49:21;14.25;;;13.05;;
25137;SDS011;13112;50.986;4.354;2022-07-29T06:51:49;14.25;;;13.10;;
25137;SDS011;13112;50.986;4.354;2022-07-29T06:54:14;14.38;;;13.48;;
25137;SDS011;13112;50.986;4.354;2022-07-29T06:56:40;13.85;;;12.75;;
25137;SDS011;13112;50.986;4.354;2022-07-29T06:59:08;14.05;;;12.88;;
25137;SDS011;13112;50.986;4.354;2022-07-29T07:01:35;13.85;;;12.77;;
25137;SDS011;13112;50.986;4.354;2022-07-29T07:04:02;14.75;;;13.27;;
25137;SDS011;13112;50.986;4.354;2022-07-29T07:06:27;14.18;;;13.18;;
25137;SDS011;13112;50.986;4.354;2022-07-29T07:08:53;13.73;;;12.55;;
25137;SDS011;13112;50.986;4.354;2022-07-29T07:11:19;13.75;;;12.68;;
25137;SDS011;13112;50.986;4.354;2022-07-29T07:13:44;14.32;;;13.00;;
25137;SDS011;13112;50.986;4.354;2022-07-29T07:16:10;13.98;;;12.98;;
25137;SDS011;13112;50.986;4.354;2022-07-29T07:18:36;14.07;;;12.98;;
25137;SDS011;13112;50.986;4.354;2022-07-29T07:21:01;14.65;;;13.65;;
25137;SDS011;13112;50.986;4.354;2022-07-29T07:23:27;14.43;;;13.50;;
25137;SDS011;13112;50.986;4.354;2022-07-29T07:25:53;14.68;;;13.57;;
25137;SDS011;13112;50.986;4.354;2022-07-29T07:28:18;16.33;;;13.70;;
25137;SDS011;13112;50.986;4.354;2022-07-29T07:30:44;14.13;;;12.93;;
25137;SDS011;13112;50.986;4.354;2022-07-29T07:33:10;14.95;;;13.65;;
25137;SDS011;13112;50.986;4.354;2022-07-29T07:35:36;15.30;;;13.90;;
25137;SDS011;13112;50.986;4.354;2022-07-29T07:38:02;14.20;;;13.10;;
25137;SDS011;13112;50.986;4.354;2022-07-29T07:40:28;14.15;;;13.02;;
25137;SDS011;13112;50.986;4.354;2022-07-29T07:42:53;14.40;;;12.98;;
25137;SDS011;13112;50.986;4.354;2022-07-29T07:45:19;13.48;;;12.68;;
25137;SDS011;13112;50.986;4.354;2022-07-29T07:47:44;13.30;;;12.50;;
25137;SDS011;13112;50.986;4.354;2022-07-29T07:50:11;14.70;;;13.60;;
25137;SDS011;13112;50.986;4.354;2022-07-29T07:52:55;14.45;;;13.27;;
25137;SDS011;13112;50.986;4.354;2022-07-29T07:55:26;14.50;;;13.07;;
25137;SDS011;13112;50.986;4.354;2022-07-29T07:57:52;13.82;;;12.93;;
25137;SDS011;13112;50.986;4.354;2022-07-29T08:00:19;14.88;;;13.63;;
25137;SDS011;13112;50.986;4.354;2022-07-29T08:02:45;14.02;;;12.98;;
25137;SDS011;13112;50.986;4.354;2022-07-29T08:05:11;14.55;;;13.13;;
25137;SDS011;13112;50.986;4.354;2022-07-29T08:07:41;14.95;;;13.40;;
25137;SDS011;13112;50.986;4.354;2022-07-29T08:10:08;13.95;;;12.73;;
25137;SDS011;13112;50.986;4.354;2022-07-29T08:12:34;13.77;;;12.70;;
25137;SDS011;13112;50.986;4.354;2022-07-29T08:15:00;13.82;;;12.73;;
25137;SDS011;13112;50.986;4.354;2022-07-29T08:17:26;13.57;;;12.45;;
25137;SDS011;13112;50.986;4.354;2022-07-29T08:19:51;14.00;;;12.90;;
25137;SDS011;13112;50.986;4.354;2022-07-29T08:22:17;14.27;;;13.18;;
25137;SDS011;13112;50.986;4.354;2022-07-29T08:24:43;13.27;;;12.38;;
25137;SDS011;13112;50.986;4.354;2022-07-29T08:27:09;13.20;;;12.30;;
25137;SDS011;13112;50.986;4.354;2022-07-29T08:29:36;13.80;;;12.93;;
25137;SDS011;13112;50.986;4.354;2022-07-29T08:32:02;13.82;;;12.68;;
25137;SDS011;13112;50.986;4.354;2022-07-29T08:34:29;13.13;;;12.20;;
25137;SDS011;13112;50.986;4.354;2022-07-29T08:36:55;13.23;;;12.27;;
25137;SDS011;13112;50.986;4.354;2022-07-29T08:39:21;12.88;;;11.93;;
25137;SDS011;13112;50.986;4.354;2022-07-29T08:41:48;13.18;;;12.02;;
25137;SDS011;13112;50.986;4.354;2022-07-29T08:44:15;13.93;;;12.82;;
25137;SDS011;13112;50.986;4.354;2022-07-29T08:46:44;13.32;;;12.43;;
25137;SDS011;13112;50.986;4.354;2022-07-29T08:49:10;13.27;;;12.18;;
25137;SDS011;13112;50.986;4.354;2022-07-29T08:51:37;14.00;;;12.90;;
25137;SDS011;13112;50.986;4.354;2022-07-29T08:54:05;13.68;;;12.50;;
25137;SDS011;13112;50.986;4.354;2022-07-29T08:56:31;13.35;;;12.55;;
25137;SDS011;13112;50.986;4.354;2022-07-29T08:58:58;13.60;;;12.80;;
25137;SDS011;13112;50.986;4.354;2022-07-29T09:01:27;13.93;;;12.77;;
25137;SDS011;13112;50.986;4.354;2022-07-29T09:03:57;13.93;;;13.00;;
25137;SDS011;13112;50.986;4.354;2022-07-29T09:06:26;14.15;;;12.90;;
25137;SDS011;13112;50.986;4.354;2022-07-29T09:08:58;13.82;;;12.48;;
25137;SDS011;13112;50.986;4.354;2022-07-29T09:11:24;13.55;;;12.65;;
25137;SDS011;13112;50.986;4.354;2022-07-29T09:13:50;12.70;;;11.90;;
25137;SDS011;13112;50.986;4.354;2022-07-29T09:16:16;12.75;;;11.85;;
25137;SDS011;13112;50.986;4.354;2022-07-29T09:18:42;13.73;;;12.60;;
25137;SDS011;13112;50.986;4.354;2022-07-29T09:21:10;12.93;;;12.02;;
25137;SDS011;13112;50.986;4.354;2022-07-29T09:24:00;13.25;;;12.32;;
25137;SDS011;13112;50.986;4.354;2022-07-29T09:26:28;13.27;;;12.30;;
25137;SDS011;13112;50.986;4.354;2022-07-29T09:28:57;12.65;;;11.75;;
25137;SDS011;13112;50.986;4.354;2022-07-29T09:31:34;13.02;;;12.10;;
25137;SDS011;13112;50.986;4.354;2022-07-29T09:34:02;12.82;;;12.02;;
25137;SDS011;13112;50.986;4.354;2022-07-29T09:36:28;13.15;;;12.13;;
25137;SDS011;13112;50.986;4.354;2022-07-29T09:38:58;13.85;;;12.82;;
25137;SDS011;13112;50.986;4.354;2022-07-29T09:41:28;13.95;;;12.48;;
25137;SDS011;13112;50.986;4.354;2022-07-29T09:43:57;14.27;;;13.27;;
25137;SDS011;13112;50.986;4.354;2022-07-29T09:46:25;13.30;;;12.43;;
25137;SDS011;13112;50.986;4.354;2022-07-29T09:49:06;13.52;;;12.43;;
25137;SDS011;13112;50.986;4.354;2022-07-29T09:51:36;14.20;;;13.10;;
25137;SDS011;13112;50.986;4.354;2022-07-29T09:54:07;14.65;;;13.20;;
25137;SDS011;13112;50.986;4.354;2022-07-29T09:56:47;13.75;;;12.85;;
25137;SDS011;13112;50.986;4.354;2022-07-29T09:59:13;14.02;;;12.95;;
25137;SDS011;13112;50.986;4.354;2022-07-29T10:01:39;14.50;;;13.25;;
25137;SDS011;13112;50.986;4.354;2022-07-29T10:04:05;15.55;;;14.30;;
25137;SDS011;13112;50.986;4.354;2022-07-29T10:06:30;15.55;;;14.32;;
25137;SDS011;13112;50.986;4.354;2022-07-29T10:09:09;16.75;;;15.45;;
25137;SDS011;13112;50.986;4.354;2022-07-29T10:11:36;15.95;;;14.65;;
25137;SDS011;13112;50.986;4.354;2022-07-29T10:14:02;15.00;;;13.85;;
25137;SDS011;13112;50.986;4.354;2022-07-29T10:16:29;16.08;;;14.50;;
25137;SDS011;13112;50.986;4.354;2022-07-29T10:19:00;15.98;;;14.57;;
25137;SDS011;13112;50.986;4.354;2022-07-29T10:21:26;16.35;;;14.75;;
25137;SDS011;13112;50.986;4.354;2022-07-29T10:23:53;14.27;;;13.13;;
25137;SDS011;13112;50.986;4.354;2022-07-29T10:26:19;16.25;;;14.82;;
25137;SDS011;13112;50.986;4.354;2022-07-29T10:28:45;15.45;;;13.93;;
25137;SDS011;13112;50.986;4.354;2022-07-29T10:31:22;15.32;;;14.23;;
25137;SDS011;13112;50.986;4.354;2022-07-29T10:44:35;16.20;;;14.90;;
25137;SDS011;13112;50.986;4.354;2022-07-29T10:47:04;15.88;;;14.73;;
25137;SDS011;13112;50.986;4.354;2022-07-29T10:49:30;14.85;;;13.73;;
25137;SDS011;13112;50.986;4.354;2022-07-29T11:05:07;14.88;;;13.48;;
25137;SDS011;13112;50.986;4.354;2022-07-29T11:07:38;15.10;;;13.98;;
25137;SDS011;13112;50.986;4.354;2022-07-29T11:15:06;14.48;;;13.43;;
25137;SDS011;13112;50.986;4.354;2022-07-29T11:23:19;14.63;;;13.27;;
25137;SDS011;13112;50.986;4.354;2022-07-29T11:25:46;14.35;;;13.45;;
25137;SDS011;13112;50.986;4.354;2022-07-29T11:29:04;14.20;;;13.00;;
25137;SDS011;13112;50.986;4.354;2022-07-29T11:31:39;13.68;;;12.48;;
25137;SDS011;13112;50.986;4.354;2022-07-29T11:34:15;14.60;;;13.50;;
25137;SDS011;13112;50.986;4.354;2022-07-29T11:39:44;14.13;;;13.02;;
25137;SDS011;13112;50.986;4.354;2022-07-29T11:44:53;14.80;;;13.60;;
25137;SDS011;13112;50.986;4.354;2022-07-29T11:47:25;31.33;;;12.95;;
25137;SDS011;13112;50.986;4.354;2022-07-29T11:49:52;14.70;;;13.20;;
25137;SDS011;13112;50.986;4.354;2022-07-29T11:52:19;13.48;;;12.38;;
25137;SDS011;13112;50.986;4.354;2022-07-29T11:54:49;14.30;;;12.82;;
25137;SDS011;13112;50.986;4.354;2022-07-29T11:57:16;14.00;;;12.80;;
25137;SDS011;13112;50.986;4.354;2022-07-29T11:59:43;14.45;;;13.43;;
25137;SDS011;13112;50.986;4.354;2022-07-29T12:02:10;13.85;;;12.75;;
25137;SDS011;13112;50.986;4.354;2022-07-29T12:04:50;14.55;;;13.43;;
25137;SDS011;13112;50.986;4.354;2022-07-29T12:09:57;15.95;;;14.65;;
25137;SDS011;13112;50.986;4.354;2022-07-29T12:12:23;16.15;;;14.75;;
25137;SDS011;13112;50.986;4.354;2022-07-29T12:14:49;14.38;;;13.20;;
25137;SDS011;13112;50.986;4.354;2022-07-29T12:17:28;13.93;;;13.07;;
25137;SDS011;13112;50.986;4.354;2022-07-29T12:19:58;15.18;;;13.88;;
25137;SDS011;13112;50.986;4.354;2022-07-29T12:22:29;14.65;;;13.23;;
25137;SDS011;13112;50.986;4.354;2022-07-29T12:25:00;14.48;;;13.43;;
25137;SDS011;13112;50.986;4.354;2022-07-29T12:27:28;14.50;;;13.40;;
25137;SDS011;13112;50.986;4.354;2022-07-29T12:29:57;15.45;;;13.07;;
25137;SDS011;13112;50.986;4.354;2022-07-29T12:32:34;13.95;;;12.93;;
25137;SDS011;13112;50.986;4.354;2022-07-29T12:35:08;14.40;;;13.00;;
25137;SDS011;13112;50.986;4.354;2022-07-29T12:37:37;13.75;;;12.75;;
25137;SDS011;13112;50.986;4.354;2022-07-29T12:40:05;13.57;;;12.55;;
25137;SDS011;13112;50.986;4.354;2022-07-29T12:42:33;15.05;;;13.60;;
25137;SDS011;13112;50.986;4.354;2022-07-29T12:44:59;14.73;;;13.73;;
25137;SDS011;13112;50.986;4.354;2022-07-29T12:47:26;13.52;;;12.73;;
25137;SDS011;13112;50.986;4.354;2022-07-29T12:50:07;14.85;;;13.52;;
25137;SDS011;13112;50.986;4.354;2022-07-29T12:52:39;13.68;;;12.68;;
25137;SDS011;13112;50.986;4.354;2022-07-29T12:55:05;13.85;;;12.40;;
25137;SDS011;13112;50.986;4.354;2022-07-29T12:57:31;13.98;;;12.95;;
25137;SDS011;13112;50.986;4.354;2022-07-29T13:00:10;13.73;;;12.82;;
25137;SDS011;13112;50.986;4.354;2022-07-29T13:02:37;15.00;;;13.40;;
25137;SDS011;13112;50.986;4.354;2022-07-29T13:05:05;14.65;;;13.68;;
25137;SDS011;13112;50.986;4.354;2022-07-29T13:07:32;13.25;;;12.23;;
25137;SDS011;13112;50.986;4.354;2022-07-29T13:12:39;14.13;;;12.85;;
25137;SDS011;13112;50.986;4.354;2022-07-29T13:15:23;14.38;;;12.90;;
25137;SDS011;13112;50.986;4.354;2022-07-29T13:17:49;13.82;;;12.85;;
25137;SDS011;13112;50.986;4.354;2022-07-29T13:20:15;16.55;;;13.98;;
25137;SDS011;13112;50.986;4.354;2022-07-29T13:22:41;13.07;;;12.27;;
25137;SDS011;13112;50.986;4.354;2022-07-29T13:25:08;13.70;;;12.65;;
25137;SDS011;13112;50.986;4.354;2022-07-29T13:27:35;14.57;;;13.38;;
25137;SDS011;13112;50.986;4.354;2022-07-29T13:30:06;13.75;;;12.73;;
25137;SDS011;13112;50.986;4.354;2022-07-29T13:32:34;14.40;;;13.40;;
25137;SDS011;13112;50.986;4.354;2022-07-29T13:35:02;14.27;;;13.32;;
25137;SDS011;13112;50.986;4.354;2022-07-29T13:37:30;13.55;;;12.43;;
25137;SDS011;13112;50.986;4.354;2022-07-29T13:39:58;14.32;;;12.95;;
25137;SDS011;13112;50.986;4.354;2022-07-29T13:42:25;13.50;;;12.60;;
25137;SDS011;13112;50.986;4.354;2022-07-29T13:44:51;13.95;;;12.93;;
25137;SDS011;13112;50.986;4.354;2022-07-29T13:47:21;14.07;;;12.98;;
25137;SDS011;13112;50.986;4.354;2022-07-29T13:49:47;13.63;;;12.32;;
25137;SDS011;13112;50.986;4.354;2022-07-29T13:52:13;14.05;;;12.95;;
25137;SDS011;13112;50.986;4.354;2022-07-29T13:54:39;12.60;;;11.70;;
25137;SDS011;13112;50.986;4.354;2022-07-29T13:57:05;13.45;;;12.60;;
25137;SDS011;13112;50.986;4.354;2022-07-29T13:59:30;13.00;;;12.10;;
25137;SDS011;13112;50.986;4.354;2022-07-29T14:01:56;12.68;;;11.75;;
25137;SDS011;13112;50.986;4.354;2022-07-29T14:04:22;13.15;;;12.27;;
25137;SDS011;13112;50.986;4.354;2022-07-29T14:06:48;14.93;;;13.60;;
25137;SDS011;13112;50.986;4.354;2022-07-29T14:09:15;13.77;;;12.85;;
25137;SDS011;13112;50.986;4.354;2022-07-29T14:11:40;13.60;;;12.50;;
25137;SDS011;13112;50.986;4.354;2022-07-29T14:14:06;13.13;;;12.10;;
25137;SDS011;13112;50.986;4.354;2022-07-29T14:16:32;14.07;;;12.85;;
25137;SDS011;13112;50.986;4.354;2022-07-29T14:18:59;13.38;;;12.40;;
25137;SDS011;13112;50.986;4.354;2022-07-29T14:21:24;14.07;;;13.15;;
25137;SDS011;13112;50.986;4.354;2022-07-29T14:23:50;14.25;;;13.25;;
25137;SDS011;13112;50.986;4.354;2022-07-29T14:26:17;14.10;;;12.98;;
25137;SDS011;13112;50.986;4.354;2022-07-29T14:28:42;13.32;;;12.27;;
25137;SDS011;13112;50.986;4.354;2022-07-29T14:31:09;13.30;;;12.27;;
25137;SDS011;13112;50.986;4.354;2022-07-29T14:33:35;12.52;;;11.70;;
25137;SDS011;13112;50.986;4.354;2022-07-29T14:36:00;12.63;;;11.73;;
25137;SDS011;13112;50.986;4.354;2022-07-29T14:38:26;13.77;;;12.65;;
25137;SDS011;13112;50.986;4.354;2022-07-29T14:40:52;13.75;;;12.80;;
25137;SDS011;13112;50.986;4.354;2022-07-29T14:43:18;14.00;;;13.10;;
25137;SDS011;13112;50.986;4.354;2022-07-29T14:45:43;13.82;;;12.88;;
25137;SDS011;13112;50.986;4.354;2022-07-29T14:48:09;13.52;;;12.50;;
25137;SDS011;13112;50.986;4.354;2022-07-29T14:50:36;14.45;;;13.23;;
25137;SDS011;13112;50.986;4.354;2022-07-29T14:53:02;13.88;;;12.82;;
25137;SDS011;13112;50.986;4.354;2022-07-29T14:55:28;14.48;;;13.00;;
25137;SDS011;13112;50.986;4.354;2022-07-29T14:57:54;13.98;;;13.00;;
25137;SDS011;13112;50.986;4.354;2022-07-29T15:00:20;14.30;;;13.20;;
25137;SDS011;13112;50.986;4.354;2022-07-29T15:02:46;14.73;;;13.52;;
25137;SDS011;13112;50.986;4.354;2022-07-29T15:05:12;14.18;;;13.27;;
25137;SDS011;13112;50.986;4.354;2022-07-29T15:07:37;13.68;;;12.68;;
25137;SDS011;13112;50.986;4.354;2022-07-29T15:10:03;13.98;;;12.93;;
25137;SDS011;13112;50.986;4.354;2022-07-29T15:12:30;14.63;;;13.38;;
25137;SDS011;13112;50.986;4.354;2022-07-29T15:14:56;14.48;;;13.30;;
25137;SDS011;13112;50.986;4.354;2022-07-29T15:17:22;13.77;;;12.90;;
25137;SDS011;13112;50.986;4.354;2022-07-29T15:19:47;14.50;;;13.10;;
25137;SDS011;13112;50.986;4.354;2022-07-29T15:22:13;13.60;;;12.57;;
25137;SDS011;13112;50.986;4.354;2022-07-29T15:24:39;12.85;;;12.05;;
25137;SDS011;13112;50.986;4.354;2022-07-29T15:27:05;13.82;;;12.63;;
25137;SDS011;13112;50.986;4.354;2022-07-29T15:29:30;13.77;;;12.73;;
25137;SDS011;13112;50.986;4.354;2022-07-29T15:31:56;14.35;;;13.25;;